sensor_id;sensor_type;location;lat;lon;timestamp;pressure;altitude;pressure_sealevel;temperature;humidity
20825;BME280;10573;50.936;6.978;2023-08-12T00:00:44;101412.38;;;23.10;83.06
20825;BME280;10573;50.936;6.978;2023-08-12T00:03:10;101404.28;;;23.16;83.78
20825;BME280;10573;50.936;6.978;2023-08-12T00:05:35;101408.56;;;23.25;83.30
20825;BME280;10573;50.936;6.978;2023-08-12T00:08:01;101425.88;;;23.13;83.33
20825;BME280;10573;50.936;6.978;2023-08-12T00:10:26;101424.81;;;23.28;83.16
20825;BME280;10573;50.936;6.978;2023-08-12T00:12:52;101437.00;;;23.34;83.85
20825;BME280;10573;50.936;6.978;2023-08-12T00:15:17;101427.16;;;23.31;83.28
20825;BME280;10573;50.936;6.978;2023-08-12T00:17:43;101431.88;;;23.24;83.18
20825;BME280;10573;50.936;6.978;2023-08-12T00:20:09;101432.72;;;23.31;83.33
20825;BME280;10573;50.936;6.978;2023-08-12T00:22:36;101431.44;;;23.27;82.96
20825;BME280;10573;50.936;6.978;2023-08-12T00:25:01;101414.34;;;23.37;83.30
20825;BME280;10573;50.936;6.978;2023-08-12T00:27:27;101427.59;;;23.28;83.70
20825;BME280;10573;50.936;6.978;2023-08-12T00:29:53;101432.66;;;23.04;83.02
20825;BME280;10573;50.936;6.978;2023-08-12T00:32:18;101422.81;;;23.08;83.79
20825;BME280;10573;50.936;6.978;2023-08-12T00:34:43;101413.84;;;23.00;85.10
20825;BME280;10573;50.936;6.978;2023-08-12T00:37:09;101420.53;;;23.19;84.73
20825;BME280;10573;50.936;6.978;2023-08-12T00:39:35;101416.91;;;23.25;84.47
20825;BME280;10573;50.936;6.978;2023-08-12T00:42:00;101410.47;;;23.31;84.00
20825;BME280;10573;50.936;6.978;2023-08-12T00:44:26;101415.63;;;23.14;83.22
20825;BME280;10573;50.936;6.978;2023-08-12T00:46:51;101414.97;;;23.25;83.65
20825;BME280;10573;50.936;6.978;2023-08-12T00:49:17;101413.91;;;23.20;83.32
20825;BME280;10573;50.936;6.978;2023-08-12T00:51:44;101399.78;;;23.21;84.59
20825;BME280;10573;50.936;6.978;2023-08-12T00:54:13;101401.94;;;23.19;84.79
20825;BME280;10573;50.936;6.978;2023-08-12T00:56:39;101405.31;;;23.08;85.75
20825;BME280;10573;50.936;6.978;2023-08-12T00:59:07;101405.75;;;23.05;84.84
20825;BME280;10573;50.936;6.978;2023-08-12T01:01:33;101403.63;;;23.13;84.66
20825;BME280;10573;50.936;6.978;2023-08-12T01:03:59;101403.59;;;23.00;85.11
20825;BME280;10573;50.936;6.978;2023-08-12T01:06:24;101396.34;;;23.06;84.91
20825;BME280;10573;50.936;6.978;2023-08-12T01:08:50;101382.44;;;23.12;84.93
20825;BME280;10573;50.936;6.978;2023-08-12T01:11:29;101369.44;;;23.20;84.87
20825;BME280;10573;50.936;6.978;2023-08-12T01:16:47;101362.59;;;23.16;84.95
20825;BME280;10573;50.936;6.978;2023-08-12T01:19:35;101369.19;;;23.08;85.16
20825;BME280;10573;50.936;6.978;2023-08-12T01:22:02;101364.69;;;23.07;85.32
20825;BME280;10573;50.936;6.978;2023-08-12T01:24:34;101366.41;;;23.01;85.70
20825;BME280;10573;50.936;6.978;2023-08-12T01:27:04;101363.84;;;23.06;85.65
20825;BME280;10573;50.936;6.978;2023-08-12T01:29:30;101359.78;;;23.02;85.31
20825;BME280;10573;50.936;6.978;2023-08-12T01:32:11;101351.44;;;23.02;85.22
20825;BME280;10573;50.936;6.978;2023-08-12T01:34:51;101359.56;;;22.90;85.06
20825;BME280;10573;50.936;6.978;2023-08-12T01:37:24;101343.53;;;22.99;85.10
20825;BME280;10573;50.936;6.978;2023-08-12T01:39:49;101345.44;;;22.92;85.58
20825;BME280;10573;50.936;6.978;2023-08-12T01:42:18;101339.88;;;22.92;85.61
20825;BME280;10573;50.936;6.978;2023-08-12T01:44:45;101341.81;;;22.98;85.56
20825;BME280;10573;50.936;6.978;2023-08-12T01:47:11;101343.31;;;22.94;85.39
20825;BME280;10573;50.936;6.978;2023-08-12T01:49:36;101335.19;;;22.99;84.92
20825;BME280;10573;50.936;6.978;2023-08-12T01:52:02;101339.88;;;22.92;85.67
20825;BME280;10573;50.936;6.978;2023-08-12T01:54:27;101340.94;;;22.91;84.90
20825;BME280;10573;50.936;6.978;2023-08-12T01:57:02;101343.31;;;22.81;85.29
20825;BME280;10573;50.936;6.978;2023-08-12T01:59:28;101344.59;;;22.78;85.54
20825;BME280;10573;50.936;6.978;2023-08-12T02:01:53;101344.56;;;22.71;85.83
20825;BME280;10573;50.936;6.978;2023-08-12T02:04:18;101337.09;;;22.78;85.38
20825;BME280;10573;50.936;6.978;2023-08-12T02:06:44;101336.47;;;22.76;85.64
20825;BME280;10573;50.936;6.978;2023-08-12T02:09:09;101333.25;;;22.66;85.21
20825;BME280;10573;50.936;6.978;2023-08-12T02:11:34;101336.44;;;22.63;85.52
20825;BME280;10573;50.936;6.978;2023-08-12T02:14:00;101329.63;;;22.66;85.08
20825;BME280;10573;50.936;6.978;2023-08-12T02:16:25;101342.00;;;22.63;85.50
20825;BME280;10573;50.936;6.978;2023-08-12T02:18:50;101331.75;;;22.70;85.20
20825;BME280;10573;50.936;6.978;2023-08-12T02:21:16;101330.91;;;22.70;85.21
20825;BME280;10573;50.936;6.978;2023-08-12T02:23:41;101330.47;;;22.73;85.11
20825;BME280;10573;50.936;6.978;2023-08-12T02:26:09;101331.13;;;22.68;84.78
20825;BME280;10573;50.936;6.978;2023-08-12T02:28:34;101325.97;;;22.65;85.77
20825;BME280;10573;50.936;6.978;2023-08-12T02:31:00;101327.47;;;22.68;85.70
20825;BME280;10573;50.936;6.978;2023-08-12T02:33:25;101321.47;;;22.64;85.84
20825;BME280;10573;50.936;6.978;2023-08-12T02:35:53;101318.69;;;22.64;85.71
20825;BME280;10573;50.936;6.978;2023-08-12T02:38:18;101310.59;;;22.69;85.30
20825;BME280;10573;50.936;6.978;2023-08-12T02:40:47;101308.69;;;22.70;85.49
20825;BME280;10573;50.936;6.978;2023-08-12T02:43:13;101324.69;;;22.68;85.65
20825;BME280;10573;50.936;6.978;2023-08-12T02:45:38;101328.72;;;22.58;85.72
20825;BME280;10573;50.936;6.978;2023-08-12T02:48:04;101312.94;;;22.59;85.43
20825;BME280;10573;50.936;6.978;2023-08-12T02:50:29;101310.81;;;22.68;85.43
20825;BME280;10573;50.936;6.978;2023-08-12T02:52:55;101306.31;;;22.67;85.54
20825;BME280;10573;50.936;6.978;2023-08-12T02:55:20;101300.97;;;22.65;85.44
20825;BME280;10573;50.936;6.978;2023-08-12T02:57:45;101309.50;;;22.57;84.93
20825;BME280;10573;50.936;6.978;2023-08-12T03:00:11;101303.97;;;22.63;84.45
20825;BME280;10573;50.936;6.978;2023-08-12T03:02:37;101308.25;;;22.59;85.35
20825;BME280;10573;50.936;6.978;2023-08-12T03:05:02;101284.53;;;22.57;84.44
20825;BME280;10573;50.936;6.978;2023-08-12T03:07:28;101295.84;;;22.49;85.03
20825;BME280;10573;50.936;6.978;2023-08-12T03:09:53;101297.31;;;22.38;85.13
20825;BME280;10573;50.936;6.978;2023-08-12T03:12:19;101303.28;;;22.35;85.22
20825;BME280;10573;50.936;6.978;2023-08-12T03:14:44;101298.19;;;22.52;84.37
20825;BME280;10573;50.936;6.978;2023-08-12T03:17:09;101296.28;;;22.59;84.48
20825;BME280;10573;50.936;6.978;2023-08-12T03:19:35;101288.16;;;22.44;84.69
20825;BME280;10573;50.936;6.978;2023-08-12T03:22:01;101279.63;;;22.52;85.10
20825;BME280;10573;50.936;6.978;2023-08-12T03:24:26;101280.47;;;22.53;85.21
20825;BME280;10573;50.936;6.978;2023-08-12T03:26:51;101271.06;;;22.54;85.05
20825;BME280;10573;50.936;6.978;2023-08-12T03:29:17;101266.78;;;22.44;85.65
20825;BME280;10573;50.936;6.978;2023-08-12T03:31:42;101272.78;;;22.55;85.45
20825;BME280;10573;50.936;6.978;2023-08-12T03:34:08;101268.28;;;22.54;85.06
20825;BME280;10573;50.936;6.978;2023-08-12T03:36:33;101268.06;;;22.49;85.03
20825;BME280;10573;50.936;6.978;2023-08-12T03:38:58;101265.28;;;22.42;85.54
20825;BME280;10573;50.936;6.978;2023-08-12T03:41:24;101255.69;;;22.51;85.65
20825;BME280;10573;50.936;6.978;2023-08-12T03:43:49;101249.66;;;22.34;85.65
20825;BME280;10573;50.936;6.978;2023-08-12T03:46:16;101256.44;;;22.18;86.11
20825;BME280;10573;50.936;6.978;2023-08-12T03:48:42;101241.06;;;22.16;86.98
20825;BME280;10573;50.936;6.978;2023-08-12T03:51:07;101234.66;;;22.08;86.76
20825;BME280;10573;50.936;6.978;2023-08-12T03:53:32;101239.75;;;21.98;86.86
20825;BME280;10573;50.936;6.978;2023-08-12T03:55:58;101233.81;;;22.01;86.69
20825;BME280;10573;50.936;6.978;2023-08-12T03:58:23;101226.97;;;21.97;87.18
20825;BME280;10573;50.936;6.978;2023-08-12T04:00:48;101226.72;;;21.92;87.51
20825;BME280;10573;50.936;6.978;2023-08-12T04:03:14;101232.47;;;21.84;87.61
20825;BME280;10573;50.936;6.978;2023-08-12T04:05:47;101224.53;;;21.81;87.95
20825;BME280;10573;50.936;6.978;2023-08-12T04:08:13;101223.91;;;21.78;87.48
20825;BME280;10573;50.936;6.978;2023-08-12T04:10:39;101223.50;;;21.82;87.69
20825;BME280;10573;50.936;6.978;2023-08-12T04:13:04;101228.59;;;21.85;87.35
20825;BME280;10573;50.936;6.978;2023-08-12T04:15:30;101216.00;;;21.75;87.56
20825;BME280;10573;50.936;6.978;2023-08-12T04:17:55;101222.41;;;21.76;87.31
20825;BME280;10573;50.936;6.978;2023-08-12T04:20:21;101216.38;;;21.59;87.97
20825;BME280;10573;50.936;6.978;2023-08-12T04:22:47;101214.91;;;21.70;87.74
20825;BME280;10573;50.936;6.978;2023-08-12T04:25:14;101217.69;;;21.70;88.19
20825;BME280;10573;50.936;6.978;2023-08-12T04:27:39;101212.16;;;21.76;87.60
20825;BME280;10573;50.936;6.978;2023-08-12T04:30:05;101213.00;;;21.70;87.45
20825;BME280;10573;50.936;6.978;2023-08-12T04:32:31;101223.91;;;21.78;87.06
20825;BME280;10573;50.936;6.978;2023-08-12T04:34:56;101220.91;;;21.73;87.45
20825;BME280;10573;50.936;6.978;2023-08-12T04:37:21;101222.19;;;21.77;87.11
20825;BME280;10573;50.936;6.978;2023-08-12T04:39:49;101221.78;;;21.81;87.03
20825;BME280;10573;50.936;6.978;2023-08-12T04:42:14;101208.97;;;21.73;86.68
20825;BME280;10573;50.936;6.978;2023-08-12T04:44:39;101209.00;;;21.79;86.74
20825;BME280;10573;50.936;6.978;2023-08-12T04:47:05;101208.78;;;21.81;87.05
20825;BME280;10573;50.936;6.978;2023-08-12T04:49:30;101217.50;;;21.78;86.69
20825;BME280;10573;50.936;6.978;2023-08-12T04:51:55;101211.97;;;21.85;86.87
20825;BME280;10573;50.936;6.978;2023-08-12T04:54:21;101203.06;;;21.96;86.52
20825;BME280;10573;50.936;6.978;2023-08-12T04:56:46;101206.25;;;21.93;85.78
20825;BME280;10573;50.936;6.978;2023-08-12T04:59:12;101200.06;;;21.98;85.92
20825;BME280;10573;50.936;6.978;2023-08-12T05:01:37;101211.59;;;22.01;85.74
20825;BME280;10573;50.936;6.978;2023-08-12T05:04:02;101203.91;;;22.03;85.34
20825;BME280;10573;50.936;6.978;2023-08-12T05:06:28;101191.53;;;22.06;85.47
20825;BME280;10573;50.936;6.978;2023-08-12T05:08:53;101192.00;;;22.16;85.42
20825;BME280;10573;50.936;6.978;2023-08-12T05:11:19;101194.53;;;22.04;85.62
20825;BME280;10573;50.936;6.978;2023-08-12T05:13:44;101194.13;;;22.21;85.13
20825;BME280;10573;50.936;6.978;2023-08-12T05:16:09;101193.28;;;22.27;84.59
20825;BME280;10573;50.936;6.978;2023-08-12T05:18:35;101186.84;;;22.33;84.05
20825;BME280;10573;50.936;6.978;2023-08-12T05:21:00;101202.66;;;22.26;84.56
20825;BME280;10573;50.936;6.978;2023-08-12T05:23:25;101208.00;;;22.21;84.74
20825;BME280;10573;50.936;6.978;2023-08-12T05:25:51;101206.72;;;22.17;84.38
20825;BME280;10573;50.936;6.978;2023-08-12T05:28:17;101206.28;;;22.20;84.56
20825;BME280;10573;50.936;6.978;2023-08-12T05:30:42;101203.50;;;22.26;84.65
20825;BME280;10573;50.936;6.978;2023-08-12T05:33:07;101198.38;;;22.23;84.24
20825;BME280;10573;50.936;6.978;2023-08-12T05:35:34;101206.72;;;22.17;84.04
20825;BME280;10573;50.936;6.978;2023-08-12T05:37:59;101208.66;;;22.23;83.98
20825;BME280;10573;50.936;6.978;2023-08-12T05:40:24;101202.66;;;22.26;83.97
20825;BME280;10573;50.936;6.978;2023-08-12T05:42:50;101202.66;;;22.33;84.31
20825;BME280;10573;50.936;6.978;2023-08-12T05:45:15;101216.59;;;22.39;83.89
20825;BME280;10573;50.936;6.978;2023-08-12T05:47:41;101215.97;;;22.37;84.00
20825;BME280;10573;50.936;6.978;2023-08-12T05:50:06;101213.78;;;22.33;84.03
20825;BME280;10573;50.936;6.978;2023-08-12T05:52:32;101226.34;;;22.22;84.97
20825;BME280;10573;50.936;6.978;2023-08-12T05:54:58;101224.00;;;22.19;85.01
20825;BME280;10573;50.936;6.978;2023-08-12T05:57:23;101228.28;;;22.21;85.06
20825;BME280;10573;50.936;6.978;2023-08-12T05:59:48;101227.78;;;21.91;86.46
20825;BME280;10573;50.936;6.978;2023-08-12T06:02:14;101220.31;;;21.98;86.55
20825;BME280;10573;50.936;6.978;2023-08-12T06:04:39;101222.91;;;22.00;86.67
20825;BME280;10573;50.936;6.978;2023-08-12T06:07:05;101231.66;;;22.03;87.15
20825;BME280;10573;50.936;6.978;2023-08-12T06:09:30;101224.16;;;21.90;87.07
20825;BME280;10573;50.936;6.978;2023-08-12T06:11:56;101227.38;;;22.01;87.62
20825;BME280;10573;50.936;6.978;2023-08-12T06:14:21;101232.88;;;21.87;88.33
20825;BME280;10573;50.936;6.978;2023-08-12T06:16:46;101227.81;;;22.04;88.00
20825;BME280;10573;50.936;6.978;2023-08-12T06:19:12;101222.28;;;22.04;88.03
20825;BME280;10573;50.936;6.978;2023-08-12T06:21:37;101225.66;;;21.93;88.53
20825;BME280;10573;50.936;6.978;2023-08-12T06:24:03;101223.28;;;21.83;88.52
20825;BME280;10573;50.936;6.978;2023-08-12T06:26:28;101214.75;;;21.85;88.94
20825;BME280;10573;50.936;6.978;2023-08-12T06:28:54;101203.88;;;21.96;88.20
20825;BME280;10573;50.936;6.978;2023-08-12T06:31:19;101219.22;;;21.86;87.99
20825;BME280;10573;50.936;6.978;2023-08-12T06:33:45;101216.47;;;21.92;87.71
20825;BME280;10573;50.936;6.978;2023-08-12T06:36:10;101201.34;;;21.95;87.58
20825;BME280;10573;50.936;6.978;2023-08-12T06:38:36;101207.34;;;22.05;87.77
20825;BME280;10573;50.936;6.978;2023-08-12T06:41:01;101189.19;;;22.09;86.38
20825;BME280;10573;50.936;6.978;2023-08-12T06:43:26;101166.78;;;22.04;86.59
20825;BME280;10573;50.936;6.978;2023-08-12T06:45:52;101142.47;;;22.00;85.74
20825;BME280;10573;50.936;6.978;2023-08-12T06:48:17;101164.66;;;22.06;85.35
20825;BME280;10573;50.936;6.978;2023-08-12T06:50:43;101169.13;;;22.01;84.45
20825;BME280;10573;50.936;6.978;2023-08-12T06:53:08;101175.94;;;21.98;84.70
20825;BME280;10573;50.936;6.978;2023-08-12T06:55:34;101184.28;;;22.05;84.30
20825;BME280;10573;50.936;6.978;2023-08-12T06:58:00;101189.00;;;22.18;83.46
20825;BME280;10573;50.936;6.978;2023-08-12T07:00:25;101186.00;;;22.26;83.11
20825;BME280;10573;50.936;6.978;2023-08-12T07:02:51;101181.78;;;22.43;83.42
20825;BME280;10573;50.936;6.978;2023-08-12T07:05:16;101167.44;;;22.53;82.58
20825;BME280;10573;50.936;6.978;2023-08-12T07:07:41;101154.44;;;22.67;82.03
20825;BME280;10573;50.936;6.978;2023-08-12T07:10:07;101147.38;;;22.71;81.73
20825;BME280;10573;50.936;6.978;2023-08-12T07:12:33;101140.69;;;22.92;80.07
20825;BME280;10573;50.936;6.978;2023-08-12T07:14:59;101129.97;;;22.96;79.43
20825;BME280;10573;50.936;6.978;2023-08-12T07:17:24;101112.44;;;23.02;79.70
20825;BME280;10573;50.936;6.978;2023-08-12T07:19:49;101153.50;;;22.87;80.08
20825;BME280;10573;50.936;6.978;2023-08-12T07:22:15;101162.75;;;22.74;81.04
20825;BME280;10573;50.936;6.978;2023-08-12T07:24:44;101183.91;;;22.75;81.30
20825;BME280;10573;50.936;6.978;2023-08-12T07:27:10;101189.66;;;22.67;80.82
20825;BME280;10573;50.936;6.978;2023-08-12T07:29:35;101187.91;;;22.99;79.72
20825;BME280;10573;50.936;6.978;2023-08-12T07:32:00;101199.25;;;22.91;79.18
20825;BME280;10573;50.936;6.978;2023-08-12T07:34:26;101192.59;;;22.99;79.92
20825;BME280;10573;50.936;6.978;2023-08-12T07:36:51;101187.06;;;22.92;80.37
20825;BME280;10573;50.936;6.978;2023-08-12T07:39:16;101189.84;;;22.92;80.29
20825;BME280;10573;50.936;6.978;2023-08-12T07:41:42;101197.56;;;22.90;79.95
20825;BME280;10573;50.936;6.978;2023-08-12T07:44:07;101189.59;;;23.00;79.72
20825;BME280;10573;50.936;6.978;2023-08-12T07:46:33;101181.69;;;23.17;79.28
20825;BME280;10573;50.936;6.978;2023-08-12T07:48:58;101190.19;;;23.36;79.25
20825;BME280;10573;50.936;6.978;2023-08-12T07:51:24;101183.25;;;23.58;78.30
20825;BME280;10573;50.936;6.978;2023-08-12T07:53:50;101184.88;;;23.66;76.98
20825;BME280;10573;50.936;6.978;2023-08-12T07:56:15;101168.63;;;23.70;76.18
20825;BME280;10573;50.936;6.978;2023-08-12T07:58:41;101172.25;;;24.09;75.09
20825;BME280;10573;50.936;6.978;2023-08-12T08:01:06;101174.88;;;24.29;75.20
20825;BME280;10573;50.936;6.978;2023-08-12T08:03:33;101179.94;;;24.13;73.99
20825;BME280;10573;50.936;6.978;2023-08-12T08:05:59;101170.34;;;24.09;74.25
20825;BME280;10573;50.936;6.978;2023-08-12T08:08:24;101177.25;;;24.00;75.06
20825;BME280;10573;50.936;6.978;2023-08-12T08:10:49;101180.16;;;23.73;75.83
20825;BME280;10573;50.936;6.978;2023-08-12T08:13:15;101169.25;;;23.72;76.20
20825;BME280;10573;50.936;6.978;2023-08-12T08:15:40;101158.31;;;23.77;76.19
20825;BME280;10573;50.936;6.978;2023-08-12T08:18:06;101159.13;;;23.84;75.94
20825;BME280;10573;50.936;6.978;2023-08-12T08:20:31;101142.47;;;23.77;75.09
20825;BME280;10573;50.936;6.978;2023-08-12T08:22:56;101131.09;;;24.18;74.84
20825;BME280;10573;50.936;6.978;2023-08-12T08:25:22;101136.78;;;24.29;74.08
20825;BME280;10573;50.936;6.978;2023-08-12T08:27:48;101150.94;;;24.28;72.82
20825;BME280;10573;50.936;6.978;2023-08-12T08:30:13;101148.03;;;24.41;72.86
20825;BME280;10573;50.936;6.978;2023-08-12T08:32:39;101154.09;;;24.32;72.61
20825;BME280;10573;50.936;6.978;2023-08-12T08:35:04;101155.84;;;24.26;71.72
20825;BME280;10573;50.936;6.978;2023-08-12T08:37:30;101165.28;;;24.25;72.16
20825;BME280;10573;50.936;6.978;2023-08-12T08:39:55;101167.75;;;24.15;72.03
20825;BME280;10573;50.936;6.978;2023-08-12T08:42:24;101175.38;;;23.87;71.99
20825;BME280;10573;50.936;6.978;2023-08-12T08:44:52;101160.44;;;23.82;72.54
20825;BME280;10573;50.936;6.978;2023-08-12T08:47:19;101166.13;;;24.00;73.17
20825;BME280;10573;50.936;6.978;2023-08-12T08:49:50;101173.69;;;23.79;73.91
20825;BME280;10573;50.936;6.978;2023-08-12T08:52:16;101173.72;;;23.73;74.17
20825;BME280;10573;50.936;6.978;2023-08-12T08:54:42;101177.38;;;23.73;74.29
20825;BME280;10573;50.936;6.978;2023-08-12T08:57:08;101190.78;;;23.90;74.55
20825;BME280;10573;50.936;6.978;2023-08-12T08:59:34;101186.06;;;23.97;74.24
20825;BME280;10573;50.936;6.978;2023-08-12T09:01:59;101182.81;;;24.00;73.88
20825;BME280;10573;50.936;6.978;2023-08-12T09:04:26;101187.75;;;23.98;74.42
20825;BME280;10573;50.936;6.978;2023-08-12T09:06:52;101169.66;;;24.14;74.06
20825;BME280;10573;50.936;6.978;2023-08-12T09:09:19;101174.44;;;24.32;73.41
20825;BME280;10573;50.936;6.978;2023-08-12T09:11:45;101186.84;;;25.05;70.63
20825;BME280;10573;50.936;6.978;2023-08-12T09:14:11;101179.09;;;25.26;69.67
20825;BME280;10573;50.936;6.978;2023-08-12T09:16:36;101190.28;;;25.44;69.90
20825;BME280;10573;50.936;6.978;2023-08-12T09:19:02;101184.69;;;25.44;68.10
20825;BME280;10573;50.936;6.978;2023-08-12T09:21:28;101172.31;;;25.40;68.65
20825;BME280;10573;50.936;6.978;2023-08-12T09:23:54;101179.25;;;25.31;68.69
20825;BME280;10573;50.936;6.978;2023-08-12T09:26:20;101184.22;;;25.29;68.31
20825;BME280;10573;50.936;6.978;2023-08-12T09:28:47;101180.44;;;25.42;68.21
20825;BME280;10573;50.936;6.978;2023-08-12T09:31:26;101176.88;;;25.53;67.67
20825;BME280;10573;50.936;6.978;2023-08-12T09:33:57;101180.34;;;25.49;66.33
20825;BME280;10573;50.936;6.978;2023-08-12T09:36:22;101171.16;;;25.78;66.12
20825;BME280;10573;50.936;6.978;2023-08-12T09:38:48;101166.44;;;26.21;64.47
20825;BME280;10573;50.936;6.978;2023-08-12T09:41:13;101162.53;;;26.76;62.41
20825;BME280;10573;50.936;6.978;2023-08-12T09:43:42;101157.16;;;26.75;62.07
20825;BME280;10573;50.936;6.978;2023-08-12T09:46:11;101162.38;;;26.95;62.12
20825;BME280;10573;50.936;6.978;2023-08-12T09:48:37;101161.94;;;27.68;60.37
20825;BME280;10573;50.936;6.978;2023-08-12T09:51:03;101156.16;;;28.15;58.77
20825;BME280;10573;50.936;6.978;2023-08-12T09:53:29;101159.44;;;28.12;56.81
20825;BME280;10573;50.936;6.978;2023-08-12T09:55:54;101159.09;;;27.79;58.33
20825;BME280;10573;50.936;6.978;2023-08-12T09:58:22;101162.59;;;27.17;61.16
20825;BME280;10573;50.936;6.978;2023-08-12T10:00:49;101158.63;;;26.77;61.33
20825;BME280;10573;50.936;6.978;2023-08-12T10:03:16;101159.69;;;26.53;62.58
20825;BME280;10573;50.936;6.978;2023-08-12T10:05:43;101164.13;;;26.18;62.62
20825;BME280;10573;50.936;6.978;2023-08-12T10:08:09;101162.25;;;25.70;64.66
20825;BME280;10573;50.936;6.978;2023-08-12T10:10:35;101159.00;;;25.42;65.68
20825;BME280;10573;50.936;6.978;2023-08-12T10:13:01;101163.47;;;25.25;66.59
20825;BME280;10573;50.936;6.978;2023-08-12T10:15:27;101153.78;;;25.09;67.35
20825;BME280;10573;50.936;6.978;2023-08-12T10:17:53;101154.41;;;24.92;67.32
20825;BME280;10573;50.936;6.978;2023-08-12T10:20:25;101156.22;;;24.80;67.95
20825;BME280;10573;50.936;6.978;2023-08-12T10:22:51;101158.34;;;24.85;68.82
20825;BME280;10573;50.936;6.978;2023-08-12T10:25:21;101157.09;;;24.81;69.18
20825;BME280;10573;50.936;6.978;2023-08-12T10:27:49;101158.38;;;25.03;68.98
20825;BME280;10573;50.936;6.978;2023-08-12T10:30:15;101155.47;;;25.47;66.94
20825;BME280;10573;50.936;6.978;2023-08-12T10:32:40;101146.97;;;25.72;65.81
20825;BME280;10573;50.936;6.978;2023-08-12T10:35:06;101134.78;;;25.97;65.27
20825;BME280;10573;50.936;6.978;2023-08-12T10:37:34;101154.56;;;25.95;65.70
20825;BME280;10573;50.936;6.978;2023-08-12T10:40:03;101145.19;;;26.08;64.70
20825;BME280;10573;50.936;6.978;2023-08-12T10:42:46;101144.63;;;25.88;65.34
20825;BME280;10573;50.936;6.978;2023-08-12T10:45:13;101137.38;;;25.99;65.14
20825;BME280;10573;50.936;6.978;2023-08-12T10:47:47;101133.75;;;25.79;64.89
20825;BME280;10573;50.936;6.978;2023-08-12T10:50:20;101137.97;;;25.70;65.39
20825;BME280;10573;50.936;6.978;2023-08-12T10:52:47;101136.66;;;25.42;66.33
20825;BME280;10573;50.936;6.978;2023-08-12T10:55:24;101136.81;;;25.48;67.01
20825;BME280;10573;50.936;6.978;2023-08-12T10:57:51;101139.78;;;25.34;67.61
20825;BME280;10573;50.936;6.978;2023-08-12T11:00:18;101133.41;;;25.27;67.82
20825;BME280;10573;50.936;6.978;2023-08-12T11:02:51;101134.25;;;25.27;67.61
20825;BME280;10573;50.936;6.978;2023-08-12T11:05:18;101133.72;;;25.37;67.33
20825;BME280;10573;50.936;6.978;2023-08-12T11:07:47;101124.88;;;25.40;66.50
20825;BME280;10573;50.936;6.978;2023-08-12T11:10:20;101127.38;;;25.30;66.51
20825;BME280;10573;50.936;6.978;2023-08-12T11:15:29;101115.59;;;25.46;65.50
20825;BME280;10573;50.936;6.978;2023-08-12T11:17:54;101109.84;;;25.23;64.83
20825;BME280;10573;50.936;6.978;2023-08-12T11:20:20;101105.06;;;25.30;63.65
20825;BME280;10573;50.936;6.978;2023-08-12T11:22:46;101104.50;;;25.40;63.39
20825;BME280;10573;50.936;6.978;2023-08-12T11:25:13;101106.25;;;25.53;63.54
20825;BME280;10573;50.936;6.978;2023-08-12T11:27:46;101109.44;;;25.56;62.63
20825;BME280;10573;50.936;6.978;2023-08-12T11:30:16;101093.44;;;25.63;62.78
20825;BME280;10573;50.936;6.978;2023-08-12T11:32:43;101089.00;;;25.74;61.58
20825;BME280;10573;50.936;6.978;2023-08-12T11:35:09;101090.97;;;25.86;61.54
20825;BME280;10573;50.936;6.978;2023-08-12T11:37:37;101092.69;;;25.99;61.66
20825;BME280;10573;50.936;6.978;2023-08-12T11:40:04;101097.28;;;25.93;61.06
20825;BME280;10573;50.936;6.978;2023-08-12T11:42:30;101088.66;;;25.83;61.67
20825;BME280;10573;50.936;6.978;2023-08-12T11:44:55;101100.16;;;25.74;61.96
20825;BME280;10573;50.936;6.978;2023-08-12T11:47:20;101088.63;;;25.71;61.58
20825;BME280;10573;50.936;6.978;2023-08-12T11:49:46;101090.88;;;25.62;61.77
20825;BME280;10573;50.936;6.978;2023-08-12T11:52:12;101093.81;;;25.67;61.92
20825;BME280;10573;50.936;6.978;2023-08-12T11:54:38;101081.22;;;25.76;61.44
20825;BME280;10573;50.936;6.978;2023-08-12T11:57:04;101093.13;;;25.72;61.50
20825;BME280;10573;50.936;6.978;2023-08-12T11:59:30;101090.53;;;25.70;61.72
20825;BME280;10573;50.936;6.978;2023-08-12T12:01:56;101081.91;;;25.60;61.78
20825;BME280;10573;50.936;6.978;2023-08-12T12:04:22;101083.97;;;25.65;61.99
20825;BME280;10573;50.936;6.978;2023-08-12T12:06:48;101088.84;;;25.69;61.84
20825;BME280;10573;50.936;6.978;2023-08-12T12:09:14;101083.88;;;25.71;61.90
20825;BME280;10573;50.936;6.978;2023-08-12T12:11:41;101086.56;;;25.78;61.92
20825;BME280;10573;50.936;6.978;2023-08-12T12:14:08;101089.47;;;25.71;62.13
20825;BME280;10573;50.936;6.978;2023-08-12T12:16:46;101083.22;;;25.88;61.85
20825;BME280;10573;50.936;6.978;2023-08-12T12:21:43;101080.81;;;26.03;61.48
20825;BME280;10573;50.936;6.978;2023-08-12T12:24:10;101076.72;;;26.18;61.48
20825;BME280;10573;50.936;6.978;2023-08-12T12:26:35;101078.66;;;26.29;61.21
20825;BME280;10573;50.936;6.978;2023-08-12T12:29:02;101088.59;;;26.25;60.83
20825;BME280;10573;50.936;6.978;2023-08-12T12:31:28;101079.75;;;26.40;60.86
20825;BME280;10573;50.936;6.978;2023-08-12T12:33:54;101088.59;;;26.25;60.33
20825;BME280;10573;50.936;6.978;2023-08-12T12:36:19;101090.19;;;26.21;60.79
20825;BME280;10573;50.936;6.978;2023-08-12T12:38:45;101095.63;;;26.16;61.49
20825;BME280;10573;50.936;6.978;2023-08-12T12:41:10;101090.81;;;26.23;62.52
20825;BME280;10573;50.936;6.978;2023-08-12T12:43:36;101099.06;;;26.18;61.52
20825;BME280;10573;50.936;6.978;2023-08-12T12:46:01;101108.03;;;26.20;61.55
20825;BME280;10573;50.936;6.978;2023-08-12T12:48:26;101110.47;;;26.16;61.64
20825;BME280;10573;50.936;6.978;2023-08-12T12:50:52;101108.66;;;26.45;60.78
20825;BME280;10573;50.936;6.978;2023-08-12T12:53:17;101103.06;;;26.93;58.98